Time;durP1;ratioP1;P1;durP2;ratioP2;P2;SDS_P1;SDS_P2;PMS_P1;PMS_P2;Temp;Humidity;BMP_temperature;BMP_pressure;BME280_temperature;BME280_humidity;BME280_pressure;Samples;Min_cycle;Max_cycle;Signal;HPM_P1;HPM_P2
2022/10/24 00:00:20;;;;;;;2.85;1.30;;;15.40;99.90;;;;;;4231351;28;20043;-90
2022/10/24 00:02:21;;;;;;;5.55;1.80;;;15.40;99.90;;;;;;4231560;28;20048;-89
2022/10/24 00:04:21;;;;;;;5.68;0.90;;;15.40;99.90;;;;;;4215526;28;20044;-90
2022/10/24 00:06:23;;;;;;;5.55;1.42;;;15.40;99.90;;;;;;4215107;28;20046;-90
2022/10/24 00:08:24;;;;;;;2.67;1.08;;;15.40;99.90;;;;;;4232666;28;20086;-89
2022/10/24 00:10:25;;;;;;;3.83;1.13;;;15.40;99.90;;;;;;4232305;28;20047;-90
2022/10/24 00:12:25;;;;;;;2.25;1.02;;;15.40;99.90;;;;;;4231909;28;20047;-88
2022/10/24 00:14:27;;;;;;;3.50;1.45;;;15.40;99.90;;;;;;4231459;28;20055;-89
2022/10/24 00:16:28;;;;;;;3.35;1.20;;;15.40;99.90;;;;;;4232023;28;20051;-88
2022/10/24 00:18:29;;;;;;;2.50;1.02;;;15.30;99.90;;;;;;4231195;28;20066;-89
2022/10/24 00:20:29;;;;;;;2.85;1.02;;;15.40;99.90;;;;;;4232175;28;20044;-88
2022/10/24 00:22:31;;;;;;;7.13;1.70;;;15.30;99.90;;;;;;4230798;28;20039;-88
2022/10/24 00:24:32;;;;;;;3.95;1.33;;;15.30;99.90;;;;;;4231090;28;20095;-89
2022/10/24 00:26:34;;;;;;;2.92;1.10;;;15.20;99.90;;;;;;4214532;28;20077;-89
2022/10/24 00:28:36;;;;;;;2.97;1.10;;;15.20;99.90;;;;;;4232001;28;20485;-90
2022/10/24 00:30:36;;;;;;;5.40;1.15;;;15.30;99.90;;;;;;4230618;28;20040;-89
2022/10/24 00:32:37;;;;;;;2.13;1.00;;;15.20;99.90;;;;;;4214157;28;20371;-89
2022/10/24 00:34:40;;;;;;;5.93;1.10;;;15.20;99.90;;;;;;4214124;28;20036;-89
2022/10/24 00:36:41;;;;;;;1.80;0.95;;;15.20;99.90;;;;;;4232281;28;20581;-89
2022/10/24 00:38:42;;;;;;;2.95;0.90;;;15.20;99.90;;;;;;4231924;28;20035;-89
2022/10/24 00:40:43;;;;;;;4.55;1.23;;;15.20;99.90;;;;;;4232786;28;20083;-89
2022/10/24 00:42:46;;;;;;;3.00;1.10;;;15.20;99.90;;;;;;4218531;28;20055;-89
2022/10/24 00:44:51;;;;;;;3.95;1.20;;;15.20;99.90;;;;;;4235059;28;20043;-89
2022/10/24 00:46:51;;;;;;;4.32;0.98;;;15.20;99.90;;;;;;4234784;27;20648;-88
2022/10/24 00:48:53;;;;;;;3.25;0.95;;;14.80;99.90;;;;;;4227514;28;20213;-88
2022/10/24 00:51:31;;;;;;;4.15;1.35;;;15.20;99.90;;;;;;4242852;28;20046;-89
2022/10/24 00:53:40;;;;;;;1.60;0.90;;;15.20;99.90;;;;;;4238694;28;20061;-89
2022/10/24 00:55:47;;;;;;;5.38;1.10;;;15.20;99.90;;;;;;4241560;28;20059;-89
2022/10/24 00:57:53;;;;;;;2.33;0.90;;;15.20;99.90;;;;;;4237868;28;20069;-90
2022/10/24 00:59:59;;;;;;;5.68;1.30;;;15.10;99.90;;;;;;4226855;28;20119;-89
2022/10/24 01:02:02;;;;;;;3.92;1.30;;;15.10;99.90;;;;;;4244027;28;20020;-88
2022/10/24 01:04:03;;;;;;;6.40;1.20;;;15.10;99.90;;;;;;4241773;28;20127;-89
2022/10/24 01:06:25;;;;;;;4.43;1.45;;;15.10;99.90;;;;;;4230563;28;20047;-89
2022/10/24 01:08:48;;;;;;;6.05;0.93;;;14.20;99.90;;;;;;4231778;28;20039;-88
2022/10/24 01:11:33;;;;;;;5.60;1.40;;;15.10;99.90;;;;;;4231864;28;20047;-89
2022/10/24 01:13:51;;;;;;;3.38;0.80;;;15.10;99.90;;;;;;4196840;28;20177;-88
2022/10/24 01:16:14;;;;;;;2.17;0.70;;;15.10;99.90;;;;;;4213114;28;20059;-88
2022/10/24 01:18:17;;;;;;;2.30;0.70;;;15.10;99.90;;;;;;4231810;28;20504;-89
2022/10/24 01:20:33;;;;;;;2.50;0.70;;;15.00;99.90;;;;;;4231625;28;20100;-89
2022/10/24 01:23:07;;;;;;;3.13;1.00;;;15.10;99.90;;;;;;4231503;28;20075;-89
2022/10/24 01:25:20;;;;;;;5.95;0.93;;;15.00;99.90;;;;;;4225930;28;20176;-89
2022/10/24 01:27:32;;;;;;;4.85;0.80;;;15.10;99.90;;;;;;4213338;28;20459;-89
2022/10/24 01:29:36;;;;;;;4.03;0.95;;;15.10;99.90;;;;;;4229944;28;20075;-89
2022/10/24 01:32:18;;;;;;;2.78;1.08;;;15.00;99.90;;;;;;4213539;28;20056;-88
2022/10/24 01:34:42;;;;;;;4.88;0.88;;;15.00;99.90;;;;;;4229532;28;20047;-88
2022/10/24 01:36:50;;;;;;;5.07;1.00;;;15.00;99.90;;;;;;4230119;28;20079;-89
2022/10/24 01:38:59;;;;;;;1.80;0.55;;;15.10;99.90;;;;;;4230060;28;20071;-88
2022/10/24 01:41:06;;;;;;;3.58;1.00;;;15.10;99.90;;;;;;4229753;28;20055;-88
2022/10/24 01:43:12;;;;;;;1.65;0.73;;;15.10;99.90;;;;;;4231297;28;20036;-89
2022/10/24 01:45:20;;;;;;;3.50;1.20;;;15.10;99.90;;;;;;4230104;28;20479;-89
2022/10/24 01:47:32;;;;;;;10.05;1.63;;;15.10;99.90;;;;;;4230039;28;20051;-89
2022/10/24 01:49:36;;;;;;;3.30;0.90;;;15.10;99.90;;;;;;4213625;28;20052;-89
2022/10/24 01:51:39;;;;;;;7.65;1.98;;;15.10;99.90;;;;;;4231256;28;20497;-89
2022/10/24 01:53:43;;;;;;;6.80;1.20;;;15.10;99.90;;;;;;4213212;28;20059;-88
2022/10/24 01:55:44;;;;;;;5.72;1.00;;;15.20;99.90;;;;;;4212629;28;20468;-89
2022/10/24 01:57:45;;;;;;;2.72;0.85;;;15.10;99.90;;;;;;4230288;28;20409;-89
2022/10/24 01:59:47;;;;;;;6.55;1.02;;;15.10;99.90;;;;;;4230344;28;20055;-89
2022/10/24 02:01:48;;;;;;;8.27;1.50;;;15.20;99.90;;;;;;4231414;28;20050;-89
2022/10/24 02:03:53;;;;;;;1.90;1.10;;;15.20;99.90;;;;;;4230997;28;20048;-89
2022/10/24 02:05:59;;;;;;;5.90;1.30;;;15.30;99.90;;;;;;4212301;28;20047;-89
2022/10/24 02:08:05;;;;;;;6.85;1.52;;;15.30;99.90;;;;;;4229836;28;20056;-89
2022/10/24 02:10:20;;;;;;;4.15;1.13;;;15.30;99.90;;;;;;4229888;28;20087;-88
2022/10/24 02:12:25;;;;;;;7.40;1.40;;;15.40;99.90;;;;;;4232467;28;20504;-89
2022/10/24 02:14:49;;;;;;;1.50;0.90;;;15.40;99.90;;;;;;4232820;28;20063;-89
2022/10/24 02:16:50;;;;;;;5.32;1.85;;;15.40;99.90;;;;;;4233290;28;20047;-88
2022/10/24 02:18:53;;;;;;;4.35;1.27;;;15.40;99.90;;;;;;4233157;28;20573;-89
2022/10/24 02:21:15;;;;;;;7.07;1.38;;;15.40;99.90;;;;;;4233878;28;20039;-88
2022/10/24 02:23:37;;;;;;;8.95;1.90;;;15.40;99.90;;;;;;4232660;28;20056;-88
2022/10/24 02:25:43;;;;;;;4.55;1.10;;;15.40;99.90;;;;;;4232508;28;20059;-88
2022/10/24 02:27:54;;;;;;;2.95;1.05;;;15.50;99.90;;;;;;4233981;28;20477;-88
2022/10/24 02:29:58;;;;;;;6.75;1.20;;;15.40;99.90;;;;;;4215180;28;20051;-88
2022/10/24 02:32:04;;;;;;;4.00;1.17;;;15.40;99.90;;;;;;4232435;28;20564;-88
2022/10/24 02:34:07;;;;;;;3.90;1.05;;;15.50;99.90;;;;;;4232530;28;20055;-89
2022/10/24 02:36:13;;;;;;;5.38;1.48;;;15.50;99.90;;;;;;4233916;28;20032;-88
2022/10/24 02:38:25;;;;;;;4.32;1.10;;;15.40;99.90;;;;;;4233719;28;20511;-89
2022/10/24 02:40:28;;;;;;;10.50;1.27;;;15.40;99.90;;;;;;4232896;28;20532;-89
2022/10/24 02:42:30;;;;;;;6.25;2.45;;;15.50;99.90;;;;;;4232222;28;20055;-90
2022/10/24 02:44:32;;;;;;;13.45;1.20;;;15.50;99.90;;;;;;4232538;28;20077;-88
2022/10/24 02:46:34;;;;;;;4.82;1.40;;;15.50;99.90;;;;;;4215698;28;20044;-89
2022/10/24 02:48:41;;;;;;;8.57;1.85;;;15.50;99.90;;;;;;4232249;28;20050;-89
2022/10/24 02:50:42;;;;;;;6.75;1.10;;;15.50;99.90;;;;;;4232323;28;20056;-89
2022/10/24 02:52:43;;;;;;;6.82;1.27;;;15.50;99.90;;;;;;4232354;28;20404;-89
2022/10/24 02:54:44;;;;;;;3.28;0.90;;;15.50;99.90;;;;;;4214612;28;20048;-89
2022/10/24 02:56:59;;;;;;;6.03;1.50;;;15.50;99.90;;;;;;4215548;28;20058;-89
2022/10/24 02:58:59;;;;;;;6.28;1.05;;;15.50;99.90;;;;;;4232192;28;20122;-89
2022/10/24 03:01:00;;;;;;;4.05;1.25;;;15.50;99.90;;;;;;4232075;28;20433;-89
2022/10/24 03:03:01;;;;;;;7.00;1.08;;;15.50;99.90;;;;;;4214974;28;20407;-89
2022/10/24 03:05:02;;;;;;;7.28;1.40;;;15.50;99.90;;;;;;4214689;28;20040;-90
2022/10/24 03:07:03;;;;;;;3.03;1.15;;;15.50;99.90;;;;;;4231925;28;20047;-89
2022/10/24 03:09:04;;;;;;;7.45;1.55;;;15.50;99.90;;;;;;4232013;28;20085;-90
2022/10/24 03:11:06;;;;;;;7.20;1.38;;;15.50;99.90;;;;;;4232217;28;20109;-89
2022/10/24 03:13:07;;;;;;;5.30;1.00;;;15.50;99.90;;;;;;4215331;28;20043;-89
2022/10/24 03:15:08;;;;;;;3.75;1.13;;;15.60;99.90;;;;;;4214630;28;20056;-90
2022/10/24 03:17:09;;;;;;;7.97;1.50;;;15.50;99.90;;;;;;4214790;28;20194;-90
2022/10/24 03:19:09;;;;;;;6.57;1.73;;;15.60;99.90;;;;;;4233070;28;20043;-89
2022/10/24 03:21:10;;;;;;;6.13;1.65;;;15.60;99.90;;;;;;4232386;28;20554;-90
2022/10/24 03:23:11;;;;;;;3.47;1.17;;;15.60;99.90;;;;;;4230690;28;20051;-89
2022/10/24 03:25:12;;;;;;;3.38;1.10;;;15.60;99.90;;;;;;4231432;28;20139;-89
2022/10/24 03:27:12;;;;;;;5.63;1.30;;;15.60;99.90;;;;;;4231701;28;20047;-90
2022/10/24 03:29:13;;;;;;;5.10;1.40;;;15.60;99.90;;;;;;4232560;28;20042;-89
2022/10/24 03:31:14;;;;;;;4.50;1.05;;;15.60;99.90;;;;;;4213979;28;20074;-89
2022/10/24 03:33:15;;;;;;;2.88;1.15;;;15.70;99.90;;;;;;4214288;28;20417;-89
2022/10/24 03:35:15;;;;;;;10.95;1.92;;;15.70;99.90;;;;;;4231712;28;20084;-89
2022/10/24 03:37:17;;;;;;;5.65;1.20;;;15.70;99.90;;;;;;4230998;28;20506;-89
2022/10/24 03:39:18;;;;;;;6.10;1.63;;;15.80;99.90;;;;;;4231786;28;20048;-89
2022/10/24 03:41:18;;;;;;;5.00;1.10;;;15.80;99.90;;;;;;4231071;28;20048;-89
2022/10/24 03:43:19;;;;;;;11.85;2.97;;;15.80;99.90;;;;;;4232071;28;20543;-89
2022/10/24 03:45:22;;;;;;;4.30;1.50;;;15.80;99.90;;;;;;4214370;28;20058;-89
2022/10/24 03:47:22;;;;;;;7.38;2.38;;;15.80;99.90;;;;;;4232505;28;20046;-89
2022/10/24 03:49:23;;;;;;;9.05;1.50;;;15.80;99.90;;;;;;4214538;28;20044;-89
2022/10/24 03:51:24;;;;;;;7.93;1.60;;;15.80;99.90;;;;;;4232771;28;20047;-89
2022/10/24 03:53:26;;;;;;;4.85;1.23;;;15.80;99.90;;;;;;4231362;28;20074;-89
2022/10/24 03:55:27;;;;;;;11.45;1.85;;;15.80;99.90;;;;;;4230275;28;20558;-89
2022/10/24 03:57:28;;;;;;;6.40;1.70;;;15.80;99.90;;;;;;4232807;28;20043;-89
2022/10/24 03:59:29;;;;;;;5.25;1.30;;;15.80;99.90;;;;;;4231351;28;20066;-89
2022/10/24 04:01:30;;;;;;;3.67;1.42;;;15.80;99.90;;;;;;4231687;28;20111;-89
2022/10/24 04:03:30;;;;;;;7.75;1.45;;;15.90;99.90;;;;;;4232010;28;20071;-90
2022/10/24 04:05:31;;;;;;;4.35;1.23;;;15.90;99.90;;;;;;4231476;28;20055;-89
2022/10/24 04:07:33;;;;;;;7.40;2.00;;;15.90;99.90;;;;;;4230972;28;20497;-88
2022/10/24 04:09:34;;;;;;;7.10;1.23;;;15.90;99.90;;;;;;4231234;28;20451;-89
2022/10/24 04:11:35;;;;;;;4.88;1.80;;;15.90;99.90;;;;;;4214385;28;20208;-89
2022/10/24 04:13:35;;;;;;;4.88;1.67;;;15.90;99.90;;;;;;4231934;28;20051;-88
2022/10/24 04:15:36;;;;;;;7.55;1.60;;;15.90;99.90;;;;;;4230012;28;20056;-89
2022/10/24 04:17:37;;;;;;;5.05;1.77;;;15.90;99.90;;;;;;4231883;28;20036;-89
2022/10/24 04:19:37;;;;;;;6.22;1.80;;;15.80;99.90;;;;;;4233375;28;20047;-89
2022/10/24 04:21:38;;;;;;;4.55;1.67;;;15.80;99.90;;;;;;4232684;27;20052;-89
2022/10/24 04:23:43;;;;;;;7.68;1.88;;;15.80;99.90;;;;;;4232025;28;20044;-88
2022/10/24 04:25:45;;;;;;;3.45;1.45;;;15.80;99.90;;;;;;4214934;28;20525;-89
2022/10/24 04:27:46;;;;;;;5.03;1.50;;;15.80;99.90;;;;;;4231295;28;20050;-89
2022/10/24 04:29:48;;;;;;;11.93;2.38;;;15.70;99.90;;;;;;4232590;28;20075;-89
2022/10/24 04:31:49;;;;;;;7.28;1.33;;;15.70;99.90;;;;;;4232937;28;20122;-89
2022/10/24 04:33:50;;;;;;;4.10;1.25;;;15.70;99.90;;;;;;4214205;28;20544;-88
2022/10/24 04:35:51;;;;;;;6.07;1.40;;;15.70;99.90;;;;;;4230396;28;20140;-88
2022/10/24 04:37:52;;;;;;;7.72;1.30;;;15.60;99.90;;;;;;4230955;28;20047;-89
2022/10/24 04:39:53;;;;;;;8.43;1.25;;;15.60;99.90;;;;;;4232320;28;20599;-88
2022/10/24 04:41:54;;;;;;;5.15;1.30;;;15.50;99.90;;;;;;4230292;28;20051;-88
2022/10/24 04:43:56;;;;;;;11.27;1.48;;;15.50;99.90;;;;;;4214183;28;20153;-88
2022/10/24 04:45:57;;;;;;;3.88;1.15;;;15.50;99.90;;;;;;4212792;28;20047;-88
2022/10/24 04:47:58;;;;;;;6.85;1.73;;;15.40;99.90;;;;;;4229766;28;20570;-88
2022/10/24 04:49:59;;;;;;;6.40;1.25;;;15.40;99.90;;;;;;4229500;28;20043;-89
2022/10/24 04:51:59;;;;;;;9.25;1.40;;;15.40;99.90;;;;;;4231235;28;20118;-88
2022/10/24 04:54:00;;;;;;;6.40;1.13;;;15.40;99.90;;;;;;4231281;28;20077;-88
2022/10/24 04:56:01;;;;;;;7.22;1.50;;;14.80;99.90;;;;;;4229636;28;20112;-89
2022/10/24 04:58:03;;;;;;;3.55;1.80;;;15.30;99.90;;;;;;4234445;28;20048;-88
2022/10/24 05:00:05;;;;;;;4.82;1.30;;;15.30;99.90;;;;;;4234336;28;20047;-88
2022/10/24 05:02:06;;;;;;;3.67;1.52;;;15.30;99.90;;;;;;4232555;28;20087;-89
2022/10/24 05:04:08;;;;;;;6.22;1.33;;;15.30;99.90;;;;;;4233311;28;20106;-89
2022/10/24 05:06:10;;;;;;;5.18;1.45;;;15.30;99.90;;;;;;4235148;28;20044;-89
2022/10/24 05:08:10;;;;;;;7.32;1.20;;;15.30;99.90;;;;;;4243702;28;20038;-90
2022/10/24 05:10:13;;;;;;;8.60;1.10;;;15.20;99.90;;;;;;4229509;28;20052;-89
2022/10/24 05:12:15;;;;;;;4.55;1.00;;;15.20;99.90;;;;;;4246405;28;20059;-89
2022/10/24 05:14:15;;;;;;;4.32;1.42;;;15.20;99.90;;;;;;4247509;28;20055;-88
2022/10/24 05:16:16;;;;;;;4.80;1.20;;;15.20;99.90;;;;;;4243086;28;20044;-89
2022/10/24 05:18:17;;;;;;;4.00;1.15;;;15.20;99.90;;;;;;4235794;28;20126;-89
2022/10/24 05:20:18;;;;;;;5.82;1.10;;;15.20;99.90;;;;;;4213978;28;20052;-87
2022/10/24 05:22:19;;;;;;;9.35;2.13;;;15.10;99.90;;;;;;4230165;28;20519;-88
2022/10/24 05:24:20;;;;;;;6.57;1.25;;;15.20;99.90;;;;;;4229771;28;20047;-89
2022/10/24 05:26:21;;;;;;;4.97;1.33;;;15.10;99.90;;;;;;4230410;28;20052;-89
2022/10/24 05:28:22;;;;;;;5.05;1.13;;;15.10;99.90;;;;;;4231333;28;20040;-89
2022/10/24 05:30:22;;;;;;;7.43;1.70;;;15.20;99.90;;;;;;4213411;28;20048;-89
2022/10/24 05:32:24;;;;;;;3.28;1.30;;;15.10;99.90;;;;;;4231420;28;20103;-89
2022/10/24 05:34:25;;;;;;;2.55;1.67;;;15.10;99.90;;;;;;4230908;28;20232;-89
2022/10/24 05:36:26;;;;;;;4.13;1.40;;;15.10;99.90;;;;;;4231445;28;20040;-89
2022/10/24 05:38:28;;;;;;;4.07;1.10;;;15.30;99.90;;;;;;4231516;28;20032;-89
2022/10/24 05:40:28;;;;;;;5.00;1.65;;;15.10;99.90;;;;;;4231232;28;20470;-89
2022/10/24 05:42:29;;;;;;;1.92;1.23;;;15.10;99.90;;;;;;4230982;28;20077;-89
2022/10/24 05:44:30;;;;;;;6.97;1.63;;;15.10;99.90;;;;;;4230001;28;20126;-89
2022/10/24 05:46:31;;;;;;;2.50;1.13;;;15.20;99.90;;;;;;4230834;28;20439;-89
2022/10/24 05:48:32;;;;;;;2.78;1.00;;;15.10;99.90;;;;;;4233442;28;20090;-89
2022/10/24 05:50:33;;;;;;;6.95;1.38;;;15.10;99.90;;;;;;4234759;28;20064;-90
2022/10/24 05:52:36;;;;;;;2.38;1.02;;;15.00;99.90;;;;;;4234240;28;20035;-89
2022/10/24 05:54:39;;;;;;;4.25;1.10;;;15.00;99.90;;;;;;4233182;28;20118;-89
2022/10/24 05:56:40;;;;;;;6.50;2.08;;;15.20;99.90;;;;;;4233063;28;20184;-89
2022/10/24 05:58:41;;;;;;;3.33;1.30;;;15.00;99.90;;;;;;4216947;28;20040;-89
2022/10/24 06:00:42;;;;;;;5.47;1.50;;;15.00;99.90;;;;;;4232814;28;20075;-89
2022/10/24 06:02:43;;;;;;;6.85;1.15;;;15.00;99.90;;;;;;4233344;28;20051;-89
2022/10/24 06:04:49;;;;;;;4.93;2.30;;;15.00;99.90;;;;;;4217265;28;20135;-89
2022/10/24 06:06:50;;;;;;;3.38;1.33;;;14.80;99.90;;;;;;4234966;28;20042;-89
2022/10/24 06:08:51;;;;;;;8.75;1.40;;;15.00;99.90;;;;;;4240383;28;20047;-89
2022/10/24 06:10:52;;;;;;;8.38;1.15;;;15.10;99.90;;;;;;4242937;28;20104;-90
2022/10/24 06:12:55;;;;;;;3.28;1.25;;;15.10;99.90;;;;;;4239911;28;20096;-89
2022/10/24 06:15:00;;;;;;;4.78;1.30;;;15.20;99.90;;;;;;4241177;28;20044;-89
2022/10/24 06:17:00;;;;;;;5.30;1.25;;;15.10;99.90;;;;;;4240041;28;20048;-90
2022/10/24 06:19:01;;;;;;;4.97;0.85;;;14.30;99.90;;;;;;4224893;28;20538;-89
2022/10/24 06:21:07;;;;;;;5.03;0.80;;;14.60;99.90;;;;;;4244005;28;20036;-87
2022/10/24 06:23:14;;;;;;;4.93;1.33;;;15.20;99.90;;;;;;4244341;28;20181;-89
2022/10/24 06:25:16;;;;;;;6.32;1.20;;;15.10;99.90;;;;;;4243397;28;20076;-88
2022/10/24 06:27:17;;;;;;;7.88;1.60;;;15.10;99.90;;;;;;4235021;28;20416;-88
2022/10/24 06:29:17;;;;;;;4.90;1.55;;;15.10;99.90;;;;;;4233463;28;20048;-88
2022/10/24 06:31:20;;;;;;;4.78;0.90;;;15.10;99.90;;;;;;4234399;28;20040;-88
2022/10/24 06:33:21;;;;;;;4.13;0.88;;;15.10;99.90;;;;;;4216578;28;20127;-89
2022/10/24 06:35:21;;;;;;;1.83;1.05;;;15.10;99.90;;;;;;4232924;28;20489;-88
2022/10/24 06:37:22;;;;;;;3.83;1.10;;;15.10;99.90;;;;;;4232421;28;20173;-88
2022/10/24 06:39:23;;;;;;;7.03;0.90;;;15.10;99.90;;;;;;4215921;28;20533;-88
2022/10/24 06:41:24;;;;;;;5.55;1.08;;;15.20;99.90;;;;;;4234201;28;20032;-89
2022/10/24 06:43:25;;;;;;;5.28;1.05;;;15.20;99.90;;;;;;4232680;28;20047;-88
2022/10/24 06:45:28;;;;;;;4.88;0.90;;;15.10;99.90;;;;;;4234098;28;20036;-90
2022/10/24 06:47:33;;;;;;;4.18;0.90;;;15.20;99.90;;;;;;4220667;28;20109;-89
2022/10/24 06:49:34;;;;;;;5.25;1.02;;;15.20;99.90;;;;;;4216151;28;20482;-89
2022/10/24 06:51:35;;;;;;;7.95;1.35;;;15.20;99.90;;;;;;4215767;28;20059;-89
2022/10/24 06:53:36;;;;;;;4.57;1.30;;;15.30;99.90;;;;;;4234188;28;20047;-89
2022/10/24 06:55:39;;;;;;;4.25;0.90;;;15.30;99.90;;;;;;4233609;28;20511;-89
2022/10/24 06:57:40;;;;;;;6.97;1.20;;;15.40;99.90;;;;;;4232396;28;20048;-87
2022/10/24 06:59:40;;;;;;;2.40;0.90;;;15.40;99.90;;;;;;4231759;28;20378;-89
2022/10/24 07:01:41;;;;;;;3.20;1.35;;;16.20;99.90;;;;;;4215968;28;20058;-88
2022/10/24 07:03:43;;;;;;;7.90;1.50;;;15.40;99.90;;;;;;4233446;28;20050;-89
2022/10/24 07:05:43;;;;;;;2.58;0.80;;;15.50;99.90;;;;;;4233322;28;20528;-89
2022/10/24 07:07:44;;;;;;;6.43;1.15;;;15.50;99.90;;;;;;4233478;28;20144;-90
2022/10/24 07:09:51;;;;;;;7.25;2.13;;;15.50;99.90;;;;;;4233145;28;20048;-88
2022/10/24 07:11:52;;;;;;;3.70;0.85;;;15.60;99.90;;;;;;4231947;28;20127;-88
2022/10/24 07:13:53;;;;;;;3.50;0.75;;;15.70;99.90;;;;;;4215090;28;20054;-88
2022/10/24 07:15:54;;;;;;;7.00;0.95;;;15.70;99.90;;;;;;4231930;28;20109;-89
2022/10/24 07:17:55;;;;;;;5.22;1.05;;;15.80;99.90;;;;;;4231811;28;20510;-87
2022/10/24 07:19:57;;;;;;;3.25;0.82;;;15.80;99.90;;;;;;4233619;28;20048;-89
2022/10/24 07:21:58;;;;;;;4.72;1.08;;;15.80;99.90;;;;;;4231425;28;20529;-89
2022/10/24 07:24:00;;;;;;;5.28;1.10;;;15.80;99.90;;;;;;4231675;28;20039;-89
2022/10/24 07:26:08;;;;;;;4.53;1.00;;;15.80;99.90;;;;;;4231607;28;20055;-88
2022/10/24 07:28:10;;;;;;;5.18;1.40;;;15.80;99.90;;;;;;4214914;28;20047;-88
2022/10/24 07:30:19;;;;;;;6.68;0.88;;;15.80;99.90;;;;;;4232571;28;20118;-89
2022/10/24 07:32:21;;;;;;;5.50;0.90;;;15.80;99.90;;;;;;4231427;28;20046;-89
2022/10/24 07:34:22;;;;;;;8.50;2.05;;;15.80;99.90;;;;;;4230693;28;20129;-88
2022/10/24 07:36:24;;;;;;;8.00;0.95;;;15.90;99.90;;;;;;4232781;28;20487;-88
2022/10/24 07:38:25;;;;;;;4.97;1.00;;;15.90;99.90;;;;;;4232565;27;20052;-89
2022/10/24 07:40:27;;;;;;;3.58;1.00;;;16.00;99.90;;;;;;4233291;28;20046;-89
2022/10/24 07:42:28;;;;;;;3.53;0.57;;;16.10;99.90;;;;;;4232003;28;20503;-88
2022/10/24 07:44:29;;;;;;;3.45;1.05;;;16.10;99.90;;;;;;4232110;28;20048;-89
2022/10/24 07:46:30;;;;;;;5.50;0.93;;;16.20;99.90;;;;;;4232752;28;20057;-88
2022/10/24 07:48:31;;;;;;;7.10;1.30;;;16.40;99.90;;;;;;4232353;28;20508;-89
2022/10/24 07:50:44;;;;;;;5.00;0.70;;;16.40;99.90;;;;;;4232343;28;20047;-88
2022/10/24 07:52:45;;;;;;;2.88;0.93;;;16.40;99.90;;;;;;4232402;28;20123;-88
2022/10/24 07:54:46;;;;;;;2.47;0.63;;;15.70;99.90;;;;;;4232310;28;20497;-89
2022/10/24 07:56:48;;;;;;;9.48;0.80;;;16.40;99.90;;;;;;4232370;27;20044;-90
2022/10/24 07:58:48;;;;;;;2.63;0.60;;;16.40;99.90;;;;;;4230916;28;20047;-88
2022/10/24 08:00:49;;;;;;;4.88;0.63;;;16.40;99.90;;;;;;4232121;28;20066;-89
2022/10/24 08:02:50;;;;;;;2.42;0.88;;;16.30;99.90;;;;;;4230475;28;20054;-88
2022/10/24 08:04:52;;;;;;;4.30;1.30;;;16.30;99.90;;;;;;4231486;28;20047;-88
2022/10/24 08:06:53;;;;;;;7.90;0.80;;;16.30;99.90;;;;;;4233031;28;20481;-88
2022/10/24 08:08:55;;;;;;;5.22;1.45;;;15.90;99.90;;;;;;4214093;28;20048;-88
2022/10/24 08:10:56;;;;;;;8.30;1.00;;;16.30;99.90;;;;;;4230864;28;20051;-89
2022/10/24 08:12:56;;;;;;;3.92;0.90;;;16.40;99.90;;;;;;4231616;28;20055;-88
2022/10/24 08:14:57;;;;;;;5.00;0.70;;;16.50;99.90;;;;;;4231187;28;20100;-88
2022/10/24 08:16:59;;;;;;;2.15;0.60;;;16.50;99.90;;;;;;4231034;28;20116;-88
2022/10/24 08:19:00;;;;;;;8.57;1.00;;;16.50;99.90;;;;;;4233347;28;20058;-88
2022/10/24 08:21:04;;;;;;;5.22;1.20;;;16.50;99.90;;;;;;4214978;28;20580;-88
2022/10/24 08:23:07;;;;;;;4.13;0.88;;;16.70;99.90;;;;;;4233249;28;20566;-88
2022/10/24 08:25:10;;;;;;;3.90;1.00;;;17.50;99.90;;;;;;4233713;28;20040;-88
2022/10/24 08:27:12;;;;;;;3.78;0.73;;;17.80;99.90;;;;;;4215826;28;20051;-89
2022/10/24 08:29:14;;;;;;;5.20;0.90;;;17.60;99.90;;;;;;4217291;28;20052;-88
2022/10/24 08:31:20;;;;;;;4.22;1.00;;;17.20;99.90;;;;;;4234162;28;20449;-88
2022/10/24 08:33:21;;;;;;;2.45;0.68;;;17.10;99.90;;;;;;4235903;28;20496;-88
2022/10/24 08:35:22;;;;;;;5.05;1.02;;;16.90;99.90;;;;;;4230604;28;20074;-88
2022/10/24 08:37:22;;;;;;;7.18;1.85;;;17.00;99.90;;;;;;4231707;28;20131;-89
2022/10/24 08:39:23;;;;;;;9.25;2.10;;;17.00;99.90;;;;;;4230445;28;20160;-88
2022/10/24 08:41:31;;;;;;;4.22;0.65;;;17.00;99.90;;;;;;4232203;28;20566;-88
2022/10/24 08:43:31;;;;;;;5.00;0.80;;;16.90;99.90;;;;;;4230674;28;20051;-89
2022/10/24 08:45:42;;;;;;;5.60;1.65;;;16.80;99.90;;;;;;4231467;28;20046;-89
2022/10/24 08:48:01;;;;;;;4.20;0.80;;;16.80;99.90;;;;;;4213698;28;20502;-88
2022/10/24 08:50:19;;;;;;;4.20;0.70;;;16.80;99.90;;;;;;4230074;28;20048;-88
2022/10/24 08:52:41;;;;;;;5.00;1.38;;;17.60;99.90;;;;;;4230119;28;20055;-88
2022/10/24 08:54:44;;;;;;;2.40;0.70;;;17.40;99.90;;;;;;4231662;28;20042;-88
2022/10/24 08:56:46;;;;;;;5.68;0.85;;;17.50;99.90;;;;;;4231626;28;20549;-88
2022/10/24 08:58:50;;;;;;;2.53;0.57;;;17.30;99.90;;;;;;4231739;28;20088;-88
2022/10/24 09:00:55;;;;;;;7.00;1.17;;;17.00;99.90;;;;;;4229953;28;20501;-88
2022/10/24 09:03:21;;;;;;;8.18;0.70;;;17.50;99.90;;;;;;4231445;28;20043;-88
2022/10/24 09:05:29;;;;;;;7.35;1.45;;;18.30;99.90;;;;;;4230040;28;20055;-88
2022/10/24 09:07:30;;;;;;;4.35;0.60;;;18.50;99.90;;;;;;4231637;28;20043;-89
2022/10/24 09:09:43;;;;;;;5.38;0.70;;;18.30;99.60;;;;;;4230071;28;20052;-88
2022/10/24 09:12:12;;;;;;;5.35;0.82;;;18.70;98.60;;;;;;4231419;28;20047;-89
2022/10/24 09:14:17;;;;;;;;;;;19.80;98.30;;;;;;4230131;28;20420;-89
2022/10/24 09:16:21;;;;;;;4.20;1.95;;;19.80;95.60;;;;;;4229583;28;20454;-88
2022/10/24 09:18:27;;;;;;;3.72;0.70;;;19.30;98.10;;;;;;4229394;28;20492;-89
2022/10/24 09:20:32;;;;;;;8.38;1.25;;;18.70;98.90;;;;;;4229844;28;20490;-89
2022/10/24 09:22:34;;;;;;;7.05;1.00;;;18.20;99.70;;;;;;4229204;28;20047;-89
2022/10/24 09:25:05;;;;;;;5.03;0.70;;;17.80;99.90;;;;;;4231993;28;20044;-89
2022/10/24 09:27:15;;;;;;;5.15;0.70;;;17.60;99.90;;;;;;4229670;28;20091;-88
2022/10/24 09:29:16;;;;;;;7.55;0.82;;;17.50;99.90;;;;;;4230156;28;20051;-88
2022/10/24 09:31:23;;;;;;;4.35;1.00;;;18.20;99.90;;;;;;4230638;28;20521;-87
2022/10/24 09:33:29;;;;;;;3.53;1.00;;;18.10;99.90;;;;;;4232352;28;20058;-87
2022/10/24 09:35:34;;;;;;;3.22;0.98;;;18.10;99.90;;;;;;4219549;28;20048;-88
2022/10/24 09:37:34;;;;;;;6.85;0.80;;;18.10;99.90;;;;;;4217228;28;20055;-88
2022/10/24 09:39:36;;;;;;;8.55;1.00;;;18.60;99.90;;;;;;4235031;28;20036;-90
2022/10/24 09:41:37;;;;;;;8.95;1.38;;;18.90;99.70;;;;;;4233156;28;20090;-90
2022/10/24 09:43:49;;;;;;;3.78;1.20;;;19.30;99.10;;;;;;4231780;28;20042;-86
2022/10/24 09:45:59;;;;;;;3.17;0.95;;;19.70;98.90;;;;;;4231289;28;20537;-87
2022/10/24 09:48:23;;;;;;;4.03;0.98;;;19.60;98.50;;;;;;4230655;28;20440;-91
2022/10/24 09:50:24;;;;;;;1.45;0.40;;;19.80;96.90;;;;;;4229575;28;20047;-87
2022/10/24 09:52:28;;;;;;;2.78;0.52;;;19.80;97.70;;;;;;4229088;28;20497;-88
2022/10/24 09:54:31;;;;;;;3.20;0.77;;;19.40;97.80;;;;;;4229443;28;20062;-89
2022/10/24 09:56:40;;;;;;;7.80;1.50;;;19.10;98.40;;;;;;4230890;28;20497;-87
2022/10/24 09:58:41;;;;;;;11.15;1.95;;;18.80;97.30;;;;;;4231374;28;20105;-88
2022/10/24 10:00:58;;;;;;;4.00;1.20;;;18.70;98.80;;;;;;4229970;28;20110;-88
2022/10/24 10:03:21;;;;;;;8.45;1.95;;;18.10;98.20;;;;;;4229623;28;20044;-88
2022/10/24 10:05:22;;;;;;;7.72;1.13;;;18.70;98.00;;;;;;4230016;28;20166;-88
2022/10/24 10:07:26;;;;;;;8.40;1.33;;;;;;;;;;4229479;28;20051;-88
2022/10/24 10:09:30;;;;;;;8.50;1.02;;;;;;;;;;4230972;28;20478;-88
2022/10/24 10:11:33;;;;;;;4.53;0.80;;;;;;;;;;4230763;28;20493;-86
2022/10/24 10:13:54;;;;;;;4.13;0.73;;;;;;;;;;4229895;28;20055;-88
2022/10/24 10:16:02;;;;;;;2.65;0.63;;;;;;;;;;4229175;28;20051;-87
2022/10/24 10:18:21;;;;;;;7.50;1.13;;;;;;;;;;4229977;28;20492;-87
2022/10/24 10:20:26;;;;;;;6.47;1.13;;;;;;;;;;4230273;28;20100;-87
2022/10/24 10:22:28;;;;;;;7.25;0.93;;;;;;;;;;4229462;28;20040;-87
2022/10/24 10:24:32;;;;;;;2.97;0.82;;;;;;;;;;4232097;28;20477;-88
2022/10/24 10:26:39;;;;;;;9.25;0.80;;;;;;;;;;4230314;28;20036;-88
2022/10/24 10:29:00;;;;;;;6.93;0.90;;;;;;;;;;4229689;28;20048;-88
2022/10/24 10:31:01;;;;;;;3.75;0.70;;;;;;;;;;4230836;28;20061;-88
2022/10/24 10:33:21;;;;;;;4.18;0.95;;;;;;;;;;4231565;28;20067;-88
2022/10/24 10:35:29;;;;;;;4.05;0.57;;;;;;;;;;4233601;28;20472;-88
2022/10/24 10:37:34;;;;;;;4.40;0.80;;;;;;;;;;4233575;28;20447;-88
2022/10/24 10:39:41;;;;;;;4.95;1.13;;;;;;;;;;4233970;27;20122;-88
2022/10/24 10:41:42;;;;;;;3.67;1.13;;;;;;;;;;4233973;28;20435;-88
2022/10/24 10:43:51;;;;;;;3.20;0.80;;;;;;;;;;4234058;28;20078;-88
2022/10/24 10:45:52;;;;;;;3.88;1.00;;;;;;;;;;4233066;28;20047;-89
2022/10/24 10:47:56;;;;;;;6.20;1.40;;;18.80;98.50;;;;;;4233122;28;20127;-88
2022/10/24 10:49:57;;;;;;;5.18;1.55;;;16.90;99.90;;;;;;4233101;28;20047;-88
2022/10/24 10:52:38;;;;;;;5.53;0.80;;;16.70;99.90;;;;;;4232174;28;20409;-88